sensor_id;sensor_type;location;lat;lon;timestamp;temperature;humidity
68433;DHT22;55412;51.350;17.056;2023-06-22T00:02:18;22.30;70.60
68433;DHT22;55412;51.350;17.056;2023-06-22T00:04:44;22.30;72.60
68433;DHT22;55412;51.350;17.056;2023-06-22T00:07:10;22.20;71.80
68433;DHT22;55412;51.350;17.056;2023-06-22T00:09:36;22.20;71.20
68433;DHT22;55412;51.350;17.056;2023-06-22T00:12:03;22.20;71.50
68433;DHT22;55412;51.350;17.056;2023-06-22T00:14:29;22.20;71.10
68433;DHT22;55412;51.350;17.056;2023-06-22T00:16:55;22.20;70.40
68433;DHT22;55412;51.350;17.056;2023-06-22T00:19:24;22.20;70.70
68433;DHT22;55412;51.350;17.056;2023-06-22T00:21:50;22.10;71.20
68433;DHT22;55412;51.350;17.056;2023-06-22T00:24:20;22.10;72.40
68433;DHT22;55412;51.350;17.056;2023-06-22T00:26:48;22.00;71.40
68433;DHT22;55412;51.350;17.056;2023-06-22T00:29:14;22.00;71.50
68433;DHT22;55412;51.350;17.056;2023-06-22T00:31:41;22.00;71.70
68433;DHT22;55412;51.350;17.056;2023-06-22T00:34:07;22.00;72.70
68433;DHT22;55412;51.350;17.056;2023-06-22T00:36:34;21.80;75.60
68433;DHT22;55412;51.350;17.056;2023-06-22T00:39:01;21.70;74.70
68433;DHT22;55412;51.350;17.056;2023-06-22T00:41:28;21.70;75.40
68433;DHT22;55412;51.350;17.056;2023-06-22T00:43:54;21.70;75.00
68433;DHT22;55412;51.350;17.056;2023-06-22T00:46:22;21.80;73.60
68433;DHT22;55412;51.350;17.056;2023-06-22T00:48:49;21.80;72.30
68433;DHT22;55412;51.350;17.056;2023-06-22T00:51:16;21.80;72.10
68433;DHT22;55412;51.350;17.056;2023-06-22T00:53:42;21.80;71.70
68433;DHT22;55412;51.350;17.056;2023-06-22T00:56:09;21.70;72.90
68433;DHT22;55412;51.350;17.056;2023-06-22T00:58:38;21.70;73.40
68433;DHT22;55412;51.350;17.056;2023-06-22T01:01:07;21.70;74.90
68433;DHT22;55412;51.350;17.056;2023-06-22T01:03:33;21.70;73.90
68433;DHT22;55412;51.350;17.056;2023-06-22T01:06:08;21.60;74.70
68433;DHT22;55412;51.350;17.056;2023-06-22T01:08:49;21.60;74.40
68433;DHT22;55412;51.350;17.056;2023-06-22T01:11:37;21.60;74.90
68433;DHT22;55412;51.350;17.056;2023-06-22T01:17:08;21.60;73.40
68433;DHT22;55412;51.350;17.056;2023-06-22T01:19:50;21.60;72.70
68433;DHT22;55412;51.350;17.056;2023-06-22T01:22:23;21.60;73.00
68433;DHT22;55412;51.350;17.056;2023-06-22T01:25:07;21.50;72.20
68433;DHT22;55412;51.350;17.056;2023-06-22T01:28:11;21.50;74.00
68433;DHT22;55412;51.350;17.056;2023-06-22T01:31:08;21.40;73.10
68433;DHT22;55412;51.350;17.056;2023-06-22T01:33:39;21.40;73.30
68433;DHT22;55412;51.350;17.056;2023-06-22T01:36:08;21.30;73.00
68433;DHT22;55412;51.350;17.056;2023-06-22T01:38:35;21.30;73.50
68433;DHT22;55412;51.350;17.056;2023-06-22T01:41:03;21.30;73.60
68433;DHT22;55412;51.350;17.056;2023-06-22T01:43:30;21.20;73.60
68433;DHT22;55412;51.350;17.056;2023-06-22T01:45:59;21.20;74.10
68433;DHT22;55412;51.350;17.056;2023-06-22T01:48:27;21.10;74.10
68433;DHT22;55412;51.350;17.056;2023-06-22T01:50:54;21.20;74.10
68433;DHT22;55412;51.350;17.056;2023-06-22T01:53:22;21.10;73.60
68433;DHT22;55412;51.350;17.056;2023-06-22T01:55:48;21.10;73.20
68433;DHT22;55412;51.350;17.056;2023-06-22T01:58:15;21.10;74.30
68433;DHT22;55412;51.350;17.056;2023-06-22T02:00:47;21.10;74.40
68433;DHT22;55412;51.350;17.056;2023-06-22T02:03:30;21.10;74.70
68433;DHT22;55412;51.350;17.056;2023-06-22T02:06:04;21.10;73.40
68433;DHT22;55412;51.350;17.056;2023-06-22T02:08:40;21.10;73.80
68433;DHT22;55412;51.350;17.056;2023-06-22T02:11:09;21.00;73.90
68433;DHT22;55412;51.350;17.056;2023-06-22T02:13:37;21.00;73.60
68433;DHT22;55412;51.350;17.056;2023-06-22T02:16:10;21.00;75.70
68433;DHT22;55412;51.350;17.056;2023-06-22T02:18:37;21.00;73.90
68433;DHT22;55412;51.350;17.056;2023-06-22T02:21:03;20.90;74.60
68433;DHT22;55412;51.350;17.056;2023-06-22T02:23:29;20.90;75.50
68433;DHT22;55412;51.350;17.056;2023-06-22T02:25:55;20.90;74.50
68433;DHT22;55412;51.350;17.056;2023-06-22T02:28:22;20.90;74.70
68433;DHT22;55412;51.350;17.056;2023-06-22T02:30:47;20.90;73.70
68433;DHT22;55412;51.350;17.056;2023-06-22T02:33:14;20.90;73.20
68433;DHT22;55412;51.350;17.056;2023-06-22T02:35:40;20.90;74.60
68433;DHT22;55412;51.350;17.056;2023-06-22T02:38:11;20.90;73.40
68433;DHT22;55412;51.350;17.056;2023-06-22T02:40:37;20.80;77.10
68433;DHT22;55412;51.350;17.056;2023-06-22T02:43:03;20.60;78.40
68433;DHT22;55412;51.350;17.056;2023-06-22T02:45:29;20.40;78.90
68433;DHT22;55412;51.350;17.056;2023-06-22T02:47:55;20.40;76.90
68433;DHT22;55412;51.350;17.056;2023-06-22T02:50:22;20.50;76.00
68433;DHT22;55412;51.350;17.056;2023-06-22T02:52:48;20.50;78.30
68433;DHT22;55412;51.350;17.056;2023-06-22T02:55:14;20.40;79.10
68433;DHT22;55412;51.350;17.056;2023-06-22T02:57:40;20.20;79.90
68433;DHT22;55412;51.350;17.056;2023-06-22T03:00:10;20.30;78.20
68433;DHT22;55412;51.350;17.056;2023-06-22T03:02:47;20.30;79.20
68433;DHT22;55412;51.350;17.056;2023-06-22T03:05:14;20.20;80.30
68433;DHT22;55412;51.350;17.056;2023-06-22T03:07:46;20.10;81.20
68433;DHT22;55412;51.350;17.056;2023-06-22T03:10:13;20.00;82.60
68433;DHT22;55412;51.350;17.056;2023-06-22T03:12:41;20.00;82.40
68433;DHT22;55412;51.350;17.056;2023-06-22T03:15:10;20.00;83.60
68433;DHT22;55412;51.350;17.056;2023-06-22T03:17:38;19.90;83.40
68433;DHT22;55412;51.350;17.056;2023-06-22T03:20:06;20.10;81.50
68433;DHT22;55412;51.350;17.056;2023-06-22T03:22:39;20.20;82.10
68433;DHT22;55412;51.350;17.056;2023-06-22T03:25:05;20.20;82.60
68433;DHT22;55412;51.350;17.056;2023-06-22T03:27:45;20.30;83.00
68433;DHT22;55412;51.350;17.056;2023-06-22T03:30:12;20.30;84.30
68433;DHT22;55412;51.350;17.056;2023-06-22T03:32:38;20.40;84.50
68433;DHT22;55412;51.350;17.056;2023-06-22T03:35:04;20.50;82.20
68433;DHT22;55412;51.350;17.056;2023-06-22T03:37:31;20.60;82.60
68433;DHT22;55412;51.350;17.056;2023-06-22T03:39:57;20.60;83.70
68433;DHT22;55412;51.350;17.056;2023-06-22T03:42:23;20.70;83.70
68433;DHT22;55412;51.350;17.056;2023-06-22T03:44:49;20.80;84.10
68433;DHT22;55412;51.350;17.056;2023-06-22T03:47:16;20.90;82.30
68433;DHT22;55412;51.350;17.056;2023-06-22T03:49:43;20.90;83.20
68433;DHT22;55412;51.350;17.056;2023-06-22T03:52:09;21.00;82.70
68433;DHT22;55412;51.350;17.056;2023-06-22T03:54:36;21.10;83.60
68433;DHT22;55412;51.350;17.056;2023-06-22T03:57:02;21.00;83.80
68433;DHT22;55412;51.350;17.056;2023-06-22T03:59:28;21.10;80.90
68433;DHT22;55412;51.350;17.056;2023-06-22T04:01:54;21.20;78.90
68433;DHT22;55412;51.350;17.056;2023-06-22T04:04:20;21.20;76.60
68433;DHT22;55412;51.350;17.056;2023-06-22T04:06:46;21.30;75.30
68433;DHT22;55412;51.350;17.056;2023-06-22T04:09:12;21.40;75.00
68433;DHT22;55412;51.350;17.056;2023-06-22T04:11:38;21.40;76.00
68433;DHT22;55412;51.350;17.056;2023-06-22T04:14:04;21.50;79.50
68433;DHT22;55412;51.350;17.056;2023-06-22T04:16:30;21.60;79.60
68433;DHT22;55412;51.350;17.056;2023-06-22T04:18:56;21.70;79.90
68433;DHT22;55412;51.350;17.056;2023-06-22T04:21:22;21.80;81.50
68433;DHT22;55412;51.350;17.056;2023-06-22T04:23:48;21.90;81.50
68433;DHT22;55412;51.350;17.056;2023-06-22T04:26:15;22.00;81.20
68433;DHT22;55412;51.350;17.056;2023-06-22T04:28:41;22.10;81.00
68433;DHT22;55412;51.350;17.056;2023-06-22T04:31:07;22.20;80.50
68433;DHT22;55412;51.350;17.056;2023-06-22T04:33:33;22.30;79.70
68433;DHT22;55412;51.350;17.056;2023-06-22T04:35:59;22.40;79.00
68433;DHT22;55412;51.350;17.056;2023-06-22T04:38:26;22.60;79.40
68433;DHT22;55412;51.350;17.056;2023-06-22T04:40:53;22.70;78.10
68433;DHT22;55412;51.350;17.056;2023-06-22T04:43:20;22.80;77.80
68433;DHT22;55412;51.350;17.056;2023-06-22T04:45:46;22.90;76.80
68433;DHT22;55412;51.350;17.056;2023-06-22T04:48:12;23.00;77.60
68433;DHT22;55412;51.350;17.056;2023-06-22T04:50:42;23.20;78.00
68433;DHT22;55412;51.350;17.056;2023-06-22T04:53:08;23.40;77.10
68433;DHT22;55412;51.350;17.056;2023-06-22T04:55:39;23.60;75.30
68433;DHT22;55412;51.350;17.056;2023-06-22T04:58:07;23.70;73.00
68433;DHT22;55412;51.350;17.056;2023-06-22T05:00:33;23.80;74.80
68433;DHT22;55412;51.350;17.056;2023-06-22T05:03:02;24.00;74.00
68433;DHT22;55412;51.350;17.056;2023-06-22T05:05:29;24.10;73.60
68433;DHT22;55412;51.350;17.056;2023-06-22T05:07:56;24.20;74.00
68433;DHT22;55412;51.350;17.056;2023-06-22T05:10:26;24.30;73.60
68433;DHT22;55412;51.350;17.056;2023-06-22T05:12:52;24.40;72.80
68433;DHT22;55412;51.350;17.056;2023-06-22T05:15:18;24.50;72.90
68433;DHT22;55412;51.350;17.056;2023-06-22T05:17:52;24.60;71.90
68433;DHT22;55412;51.350;17.056;2023-06-22T05:20:18;24.60;71.80
68433;DHT22;55412;51.350;17.056;2023-06-22T05:22:44;24.70;72.40
68433;DHT22;55412;51.350;17.056;2023-06-22T05:25:11;24.70;72.40
68433;DHT22;55412;51.350;17.056;2023-06-22T05:27:37;24.60;72.10
68433;DHT22;55412;51.350;17.056;2023-06-22T05:30:08;24.50;72.10
68433;DHT22;55412;51.350;17.056;2023-06-22T05:32:35;24.40;72.70
68433;DHT22;55412;51.350;17.056;2023-06-22T05:35:03;24.30;73.10
68433;DHT22;55412;51.350;17.056;2023-06-22T05:37:29;24.30;73.40
68433;DHT22;55412;51.350;17.056;2023-06-22T05:39:55;24.40;73.60
68433;DHT22;55412;51.350;17.056;2023-06-22T05:42:22;24.60;73.50
68433;DHT22;55412;51.350;17.056;2023-06-22T05:44:51;24.80;72.00
68433;DHT22;55412;51.350;17.056;2023-06-22T05:47:18;24.90;72.20
68433;DHT22;55412;51.350;17.056;2023-06-22T05:49:44;25.00;70.90
68433;DHT22;55412;51.350;17.056;2023-06-22T05:52:11;25.10;70.60
68433;DHT22;55412;51.350;17.056;2023-06-22T05:54:37;25.20;71.40
68433;DHT22;55412;51.350;17.056;2023-06-22T05:57:04;25.30;70.80
68433;DHT22;55412;51.350;17.056;2023-06-22T05:59:31;25.60;70.30
68433;DHT22;55412;51.350;17.056;2023-06-22T06:01:58;25.80;68.50
68433;DHT22;55412;51.350;17.056;2023-06-22T06:04:24;26.00;67.90
68433;DHT22;55412;51.350;17.056;2023-06-22T06:06:50;26.20;65.70
68433;DHT22;55412;51.350;17.056;2023-06-22T06:09:16;26.30;66.40
68433;DHT22;55412;51.350;17.056;2023-06-22T06:11:42;26.40;64.20
68433;DHT22;55412;51.350;17.056;2023-06-22T06:14:08;26.50;63.80
68433;DHT22;55412;51.350;17.056;2023-06-22T06:16:34;26.60;62.90
68433;DHT22;55412;51.350;17.056;2023-06-22T06:19:00;26.60;63.10
68433;DHT22;55412;51.350;17.056;2023-06-22T06:21:26;26.60;64.30
68433;DHT22;55412;51.350;17.056;2023-06-22T06:23:52;26.70;63.90
68433;DHT22;55412;51.350;17.056;2023-06-22T06:26:19;26.60;63.60
68433;DHT22;55412;51.350;17.056;2023-06-22T06:28:53;26.70;64.70
68433;DHT22;55412;51.350;17.056;2023-06-22T06:31:20;26.80;64.50
68433;DHT22;55412;51.350;17.056;2023-06-22T06:33:46;27.00;64.30
68433;DHT22;55412;51.350;17.056;2023-06-22T06:36:12;27.20;62.70
68433;DHT22;55412;51.350;17.056;2023-06-22T06:38:38;27.30;63.40
68433;DHT22;55412;51.350;17.056;2023-06-22T06:41:04;27.30;62.30
68433;DHT22;55412;51.350;17.056;2023-06-22T06:43:30;27.30;62.80
68433;DHT22;55412;51.350;17.056;2023-06-22T06:45:56;27.60;61.60
68433;DHT22;55412;51.350;17.056;2023-06-22T06:48:22;28.40;61.30
68433;DHT22;55412;51.350;17.056;2023-06-22T06:50:48;29.50;58.30
68433;DHT22;55412;51.350;17.056;2023-06-22T06:53:15;29.90;55.30
68433;DHT22;55412;51.350;17.056;2023-06-22T06:55:41;29.70;54.20
68433;DHT22;55412;51.350;17.056;2023-06-22T06:58:07;30.30;53.80
68433;DHT22;55412;51.350;17.056;2023-06-22T07:00:35;31.40;50.90
68433;DHT22;55412;51.350;17.056;2023-06-22T07:03:01;32.20;49.60
68433;DHT22;55412;51.350;17.056;2023-06-22T07:05:27;32.00;49.20
68433;DHT22;55412;51.350;17.056;2023-06-22T07:07:53;31.60;50.10
68433;DHT22;55412;51.350;17.056;2023-06-22T07:10:19;31.10;50.90
68433;DHT22;55412;51.350;17.056;2023-06-22T07:12:45;30.70;52.20
68433;DHT22;55412;51.350;17.056;2023-06-22T07:15:13;31.10;52.20
68433;DHT22;55412;51.350;17.056;2023-06-22T07:17:40;33.40;48.60
68433;DHT22;55412;51.350;17.056;2023-06-22T07:20:07;35.50;43.80
68433;DHT22;55412;51.350;17.056;2023-06-22T07:22:38;36.00;43.00
68433;DHT22;55412;51.350;17.056;2023-06-22T07:25:06;36.60;39.90
68433;DHT22;55412;51.350;17.056;2023-06-22T07:27:39;38.00;39.40
68433;DHT22;55412;51.350;17.056;2023-06-22T07:30:09;39.30;37.10
68433;DHT22;55412;51.350;17.056;2023-06-22T07:32:36;38.60;37.10
68433;DHT22;55412;51.350;17.056;2023-06-22T07:35:02;37.10;38.60
68433;DHT22;55412;51.350;17.056;2023-06-22T07:37:29;35.70;40.70
68433;DHT22;55412;51.350;17.056;2023-06-22T07:39:56;34.50;42.40
68433;DHT22;55412;51.350;17.056;2023-06-22T07:42:25;33.70;45.40
68433;DHT22;55412;51.350;17.056;2023-06-22T07:44:52;33.10;45.70
68433;DHT22;55412;51.350;17.056;2023-06-22T07:47:19;32.50;45.10
68433;DHT22;55412;51.350;17.056;2023-06-22T07:49:46;31.80;46.60
68433;DHT22;55412;51.350;17.056;2023-06-22T07:52:12;31.20;49.40
68433;DHT22;55412;51.350;17.056;2023-06-22T07:54:38;30.90;50.30
68433;DHT22;55412;51.350;17.056;2023-06-22T07:57:05;30.60;50.80
68433;DHT22;55412;51.350;17.056;2023-06-22T07:59:31;30.60;50.30
68433;DHT22;55412;51.350;17.056;2023-06-22T08:01:57;30.50;50.70
68433;DHT22;55412;51.350;17.056;2023-06-22T08:04:23;30.40;50.70
68433;DHT22;55412;51.350;17.056;2023-06-22T08:06:49;30.40;51.70
68433;DHT22;55412;51.350;17.056;2023-06-22T08:09:15;29.90;50.30
68433;DHT22;55412;51.350;17.056;2023-06-22T08:11:41;29.40;52.20
68433;DHT22;55412;51.350;17.056;2023-06-22T08:14:07;29.30;51.80
68433;DHT22;55412;51.350;17.056;2023-06-22T08:16:34;29.40;53.10
68433;DHT22;55412;51.350;17.056;2023-06-22T08:19:00;29.50;53.20
68433;DHT22;55412;51.350;17.056;2023-06-22T08:21:26;29.40;52.40
68433;DHT22;55412;51.350;17.056;2023-06-22T08:23:52;29.40;53.20
68433;DHT22;55412;51.350;17.056;2023-06-22T08:26:18;29.40;53.20
68433;DHT22;55412;51.350;17.056;2023-06-22T08:28:44;29.50;52.20
68433;DHT22;55412;51.350;17.056;2023-06-22T08:31:10;29.40;51.10
68433;DHT22;55412;51.350;17.056;2023-06-22T08:33:37;29.20;51.00
68433;DHT22;55412;51.350;17.056;2023-06-22T08:36:04;28.90;52.00
68433;DHT22;55412;51.350;17.056;2023-06-22T08:38:31;28.80;52.60
68433;DHT22;55412;51.350;17.056;2023-06-22T08:40:57;28.80;54.30
68433;DHT22;55412;51.350;17.056;2023-06-22T08:43:24;29.00;53.30
68433;DHT22;55412;51.350;17.056;2023-06-22T08:45:50;29.10;53.10
68433;DHT22;55412;51.350;17.056;2023-06-22T08:48:16;29.40;53.00
68433;DHT22;55412;51.350;17.056;2023-06-22T08:50:42;29.40;51.40
68433;DHT22;55412;51.350;17.056;2023-06-22T08:53:08;29.50;51.50
68433;DHT22;55412;51.350;17.056;2023-06-22T08:55:34;29.50;51.20
68433;DHT22;55412;51.350;17.056;2023-06-22T08:58:00;29.50;49.30
68433;DHT22;55412;51.350;17.056;2023-06-22T09:00:26;29.50;50.40
68433;DHT22;55412;51.350;17.056;2023-06-22T09:02:54;29.30;49.40
68433;DHT22;55412;51.350;17.056;2023-06-22T09:05:24;29.20;50.90
68433;DHT22;55412;51.350;17.056;2023-06-22T09:07:51;29.10;51.70
68433;DHT22;55412;51.350;17.056;2023-06-22T09:10:20;29.00;51.60
68433;DHT22;55412;51.350;17.056;2023-06-22T09:12:46;28.90;51.70
68433;DHT22;55412;51.350;17.056;2023-06-22T09:15:12;29.00;50.90
68433;DHT22;55412;51.350;17.056;2023-06-22T09:17:39;29.10;50.90
68433;DHT22;55412;51.350;17.056;2023-06-22T09:20:06;29.20;52.90
68433;DHT22;55412;51.350;17.056;2023-06-22T09:22:36;29.30;51.70
68433;DHT22;55412;51.350;17.056;2023-06-22T09:25:02;29.20;52.10
68433;DHT22;55412;51.350;17.056;2023-06-22T09:27:29;29.40;50.80
68433;DHT22;55412;51.350;17.056;2023-06-22T09:29:55;29.50;50.30
68433;DHT22;55412;51.350;17.056;2023-06-22T09:32:21;29.70;50.30
68433;DHT22;55412;51.350;17.056;2023-06-22T09:34:47;29.80;49.40
68433;DHT22;55412;51.350;17.056;2023-06-22T09:37:13;29.90;51.10
68433;DHT22;55412;51.350;17.056;2023-06-22T09:39:39;30.00;48.50
68433;DHT22;55412;51.350;17.056;2023-06-22T09:42:05;30.10;48.00
68433;DHT22;55412;51.350;17.056;2023-06-22T09:44:32;29.90;46.00
68433;DHT22;55412;51.350;17.056;2023-06-22T09:46:58;29.70;48.50
68433;DHT22;55412;51.350;17.056;2023-06-22T09:49:24;29.40;47.90
68433;DHT22;55412;51.350;17.056;2023-06-22T09:51:50;29.30;48.90
68433;DHT22;55412;51.350;17.056;2023-06-22T09:54:16;29.40;50.50
68433;DHT22;55412;51.350;17.056;2023-06-22T09:56:42;29.40;47.70
68433;DHT22;55412;51.350;17.056;2023-06-22T09:59:08;29.20;49.80
68433;DHT22;55412;51.350;17.056;2023-06-22T10:01:34;29.20;49.30
68433;DHT22;55412;51.350;17.056;2023-06-22T10:04:02;29.30;48.30
68433;DHT22;55412;51.350;17.056;2023-06-22T10:06:28;29.30;47.30
68433;DHT22;55412;51.350;17.056;2023-06-22T10:08:54;29.20;47.10
68433;DHT22;55412;51.350;17.056;2023-06-22T10:11:20;29.00;47.60
68433;DHT22;55412;51.350;17.056;2023-06-22T10:13:52;28.60;48.50
68433;DHT22;55412;51.350;17.056;2023-06-22T10:16:18;28.60;48.60
68433;DHT22;55412;51.350;17.056;2023-06-22T10:18:44;28.60;48.70
68433;DHT22;55412;51.350;17.056;2023-06-22T10:21:10;28.60;47.10
68433;DHT22;55412;51.350;17.056;2023-06-22T10:23:36;28.60;47.30
68433;DHT22;55412;51.350;17.056;2023-06-22T10:26:02;28.70;48.30
68433;DHT22;55412;51.350;17.056;2023-06-22T10:28:28;28.70;49.60
68433;DHT22;55412;51.350;17.056;2023-06-22T10:30:54;28.90;48.20
68433;DHT22;55412;51.350;17.056;2023-06-22T10:33:20;28.90;46.00
68433;DHT22;55412;51.350;17.056;2023-06-22T10:35:46;28.60;46.80
68433;DHT22;55412;51.350;17.056;2023-06-22T10:38:12;28.50;47.90
68433;DHT22;55412;51.350;17.056;2023-06-22T10:40:38;28.50;47.80
68433;DHT22;55412;51.350;17.056;2023-06-22T10:43:05;28.50;48.00
68433;DHT22;55412;51.350;17.056;2023-06-22T10:45:31;28.50;47.90
68433;DHT22;55412;51.350;17.056;2023-06-22T10:47:57;28.50;48.30
68433;DHT22;55412;51.350;17.056;2023-06-22T10:50:24;28.60;50.30
68433;DHT22;55412;51.350;17.056;2023-06-22T10:52:51;28.80;49.80
68433;DHT22;55412;51.350;17.056;2023-06-22T10:55:17;29.00;49.00
68433;DHT22;55412;51.350;17.056;2023-06-22T10:57:43;29.00;47.20
68433;DHT22;55412;51.350;17.056;2023-06-22T11:00:10;29.00;47.90
68433;DHT22;55412;51.350;17.056;2023-06-22T11:02:37;28.90;47.70
68433;DHT22;55412;51.350;17.056;2023-06-22T11:05:04;28.90;48.50
68433;DHT22;55412;51.350;17.056;2023-06-22T11:07:30;29.00;47.40
68433;DHT22;55412;51.350;17.056;2023-06-22T11:09:56;29.10;47.40
68433;DHT22;55412;51.350;17.056;2023-06-22T11:12:22;29.20;48.30
68433;DHT22;55412;51.350;17.056;2023-06-22T11:14:48;29.30;47.40
68433;DHT22;55412;51.350;17.056;2023-06-22T11:17:17;29.40;48.20
68433;DHT22;55412;51.350;17.056;2023-06-22T11:19:44;29.20;45.90
68433;DHT22;55412;51.350;17.056;2023-06-22T11:22:10;29.00;46.50
68433;DHT22;55412;51.350;17.056;2023-06-22T11:24:36;29.00;46.90
68433;DHT22;55412;51.350;17.056;2023-06-22T11:27:03;29.10;47.10
68433;DHT22;55412;51.350;17.056;2023-06-22T11:29:29;29.10;47.00
68433;DHT22;55412;51.350;17.056;2023-06-22T11:31:56;29.00;47.30
68433;DHT22;55412;51.350;17.056;2023-06-22T11:34:22;28.90;47.60
68433;DHT22;55412;51.350;17.056;2023-06-22T11:36:48;28.80;47.20
68433;DHT22;55412;51.350;17.056;2023-06-22T11:39:14;28.80;46.80
68433;DHT22;55412;51.350;17.056;2023-06-22T11:41:40;28.70;47.50
68433;DHT22;55412;51.350;17.056;2023-06-22T11:44:07;28.70;48.40
68433;DHT22;55412;51.350;17.056;2023-06-22T11:46:33;28.90;47.80
68433;DHT22;55412;51.350;17.056;2023-06-22T11:49:01;29.10;47.30
68433;DHT22;55412;51.350;17.056;2023-06-22T11:51:27;29.20;47.50
68433;DHT22;55412;51.350;17.056;2023-06-22T11:53:54;29.20;46.10
68433;DHT22;55412;51.350;17.056;2023-06-22T11:56:20;29.20;46.20
68433;DHT22;55412;51.350;17.056;2023-06-22T11:58:46;29.10;46.70
68433;DHT22;55412;51.350;17.056;2023-06-22T12:01:12;29.10;46.30
68433;DHT22;55412;51.350;17.056;2023-06-22T12:03:40;29.10;45.10
68433;DHT22;55412;51.350;17.056;2023-06-22T12:06:09;29.10;45.50
68433;DHT22;55412;51.350;17.056;2023-06-22T12:08:35;29.10;46.40
68433;DHT22;55412;51.350;17.056;2023-06-22T12:11:01;29.20;46.90
68433;DHT22;55412;51.350;17.056;2023-06-22T12:13:27;29.30;48.50
68433;DHT22;55412;51.350;17.056;2023-06-22T12:15:53;29.40;46.90
68433;DHT22;55412;51.350;17.056;2023-06-22T12:18:19;29.30;45.90
68433;DHT22;55412;51.350;17.056;2023-06-22T12:20:47;29.20;45.10
68433;DHT22;55412;51.350;17.056;2023-06-22T12:23:14;29.20;44.80
68433;DHT22;55412;51.350;17.056;2023-06-22T12:25:40;29.10;45.60
68433;DHT22;55412;51.350;17.056;2023-06-22T12:28:06;29.10;45.70
68433;DHT22;55412;51.350;17.056;2023-06-22T12:30:35;29.10;46.20
68433;DHT22;55412;51.350;17.056;2023-06-22T12:33:01;29.00;45.90
68433;DHT22;55412;51.350;17.056;2023-06-22T12:35:27;29.00;44.90
68433;DHT22;55412;51.350;17.056;2023-06-22T12:37:53;29.00;45.80
68433;DHT22;55412;51.350;17.056;2023-06-22T12:40:19;28.80;45.90
68433;DHT22;55412;51.350;17.056;2023-06-22T12:42:45;28.90;46.80
68433;DHT22;55412;51.350;17.056;2023-06-22T12:45:12;28.90;46.40
68433;DHT22;55412;51.350;17.056;2023-06-22T12:47:38;29.00;46.20
68433;DHT22;55412;51.350;17.056;2023-06-22T12:50:04;29.10;46.40
68433;DHT22;55412;51.350;17.056;2023-06-22T12:52:31;29.20;45.60
68433;DHT22;55412;51.350;17.056;2023-06-22T12:55:00;29.30;46.20
68433;DHT22;55412;51.350;17.056;2023-06-22T12:57:26;29.30;45.20
68433;DHT22;55412;51.350;17.056;2023-06-22T12:59:52;29.40;45.80
68433;DHT22;55412;51.350;17.056;2023-06-22T13:02:18;29.40;45.90
68433;DHT22;55412;51.350;17.056;2023-06-22T13:04:44;29.40;45.20
68433;DHT22;55412;51.350;17.056;2023-06-22T13:07:10;29.40;45.50
68433;DHT22;55412;51.350;17.056;2023-06-22T13:09:37;29.40;45.80
68433;DHT22;55412;51.350;17.056;2023-06-22T13:12:03;29.30;46.90
68433;DHT22;55412;51.350;17.056;2023-06-22T13:14:30;29.40;48.00
68433;DHT22;55412;51.350;17.056;2023-06-22T13:16:56;29.40;46.20
68433;DHT22;55412;51.350;17.056;2023-06-22T13:19:22;29.30;44.90
68433;DHT22;55412;51.350;17.056;2023-06-22T13:21:48;29.20;45.00
68433;DHT22;55412;51.350;17.056;2023-06-22T13:24:14;29.20;45.40
68433;DHT22;55412;51.350;17.056;2023-06-22T13:26:41;29.30;44.70
68433;DHT22;55412;51.350;17.056;2023-06-22T13:29:07;29.40;45.80
68433;DHT22;55412;51.350;17.056;2023-06-22T13:31:33;29.50;43.90
68433;DHT22;55412;51.350;17.056;2023-06-22T13:33:59;29.50;44.20
68433;DHT22;55412;51.350;17.056;2023-06-22T13:36:25;29.60;44.00
68433;DHT22;55412;51.350;17.056;2023-06-22T13:38:51;29.60;44.20
68433;DHT22;55412;51.350;17.056;2023-06-22T13:41:18;29.50;43.60
68433;DHT22;55412;51.350;17.056;2023-06-22T13:43:44;29.40;44.40
68433;DHT22;55412;51.350;17.056;2023-06-22T13:46:10;29.50;45.40
68433;DHT22;55412;51.350;17.056;2023-06-22T13:48:36;29.50;45.70
68433;DHT22;55412;51.350;17.056;2023-06-22T13:51:02;29.40;45.80
68433;DHT22;55412;51.350;17.056;2023-06-22T13:53:28;29.40;46.20
68433;DHT22;55412;51.350;17.056;2023-06-22T13:55:55;29.50;44.70
68433;DHT22;55412;51.350;17.056;2023-06-22T13:58:22;29.40;44.90
68433;DHT22;55412;51.350;17.056;2023-06-22T14:00:48;29.30;46.00
68433;DHT22;55412;51.350;17.056;2023-06-22T14:03:14;29.30;44.90
68433;DHT22;55412;51.350;17.056;2023-06-22T14:05:43;29.20;45.90
68433;DHT22;55412;51.350;17.056;2023-06-22T14:08:09;29.20;45.10
68433;DHT22;55412;51.350;17.056;2023-06-22T14:10:37;29.20;44.70
68433;DHT22;55412;51.350;17.056;2023-06-22T14:13:03;29.20;45.00
68433;DHT22;55412;51.350;17.056;2023-06-22T14:15:31;29.20;45.50
68433;DHT22;55412;51.350;17.056;2023-06-22T14:17:58;29.20;44.60
68433;DHT22;55412;51.350;17.056;2023-06-22T14:20:24;29.20;44.90
68433;DHT22;55412;51.350;17.056;2023-06-22T14:22:51;29.20;45.10
68433;DHT22;55412;51.350;17.056;2023-06-22T14:25:17;29.20;45.70
68433;DHT22;55412;51.350;17.056;2023-06-22T14:27:44;29.20;44.70
68433;DHT22;55412;51.350;17.056;2023-06-22T14:30:10;29.20;44.90
68433;DHT22;55412;51.350;17.056;2023-06-22T14:32:36;29.10;44.80
68433;DHT22;55412;51.350;17.056;2023-06-22T14:35:02;29.10;44.80
68433;DHT22;55412;51.350;17.056;2023-06-22T14:37:28;29.10;44.60
68433;DHT22;55412;51.350;17.056;2023-06-22T14:39:54;29.10;44.70
68433;DHT22;55412;51.350;17.056;2023-06-22T14:42:20;29.10;44.70
68433;DHT22;55412;51.350;17.056;2023-06-22T14:44:47;29.20;44.30
68433;DHT22;55412;51.350;17.056;2023-06-22T14:47:14;29.20;43.70
68433;DHT22;55412;51.350;17.056;2023-06-22T14:49:40;29.20;43.90
68433;DHT22;55412;51.350;17.056;2023-06-22T14:52:07;29.20;43.50
68433;DHT22;55412;51.350;17.056;2023-06-22T14:54:33;29.10;43.00
68433;DHT22;55412;51.350;17.056;2023-06-22T14:56:59;29.00;43.90
68433;DHT22;55412;51.350;17.056;2023-06-22T14:59:25;29.00;43.90
68433;DHT22;55412;51.350;17.056;2023-06-22T15:01:51;29.10;43.40
68433;DHT22;55412;51.350;17.056;2023-06-22T15:04:18;29.20;43.60
68433;DHT22;55412;51.350;17.056;2023-06-22T15:06:44;29.20;44.00
68433;DHT22;55412;51.350;17.056;2023-06-22T15:09:10;29.30;43.70
68433;DHT22;55412;51.350;17.056;2023-06-22T15:11:36;29.20;44.30
68433;DHT22;55412;51.350;17.056;2023-06-22T15:14:02;29.20;43.50
68433;DHT22;55412;51.350;17.056;2023-06-22T15:16:28;29.20;43.50
68433;DHT22;55412;51.350;17.056;2023-06-22T15:18:54;29.20;43.30